Time;durP1;ratioP1;P1;durP2;ratioP2;P2;SDS_P1;SDS_P2;PMS_P1;PMS_P2;Temp;Humidity;BMP_temperature;BMP_pressure;BME280_temperature;BME280_humidity;BME280_pressure;Samples;Min_cycle;Max_cycle;Signal;HPM_P1;HPM_P2
2022/10/08 00:01:29;;;;;;;12.70;11.43;;;15.50;99.90;;;;;;5024746;28;20475;-78
2022/10/08 00:03:56;;;;;;;12.83;11.60;;;15.50;99.90;;;;;;5023403;28;21040;-78
2022/10/08 00:06:25;;;;;;;12.20;11.10;;;15.60;99.90;;;;;;5032046;28;20456;-78
2022/10/08 00:08:53;;;;;;;12.70;11.60;;;15.60;99.90;;;;;;5022161;28;20471;-78
2022/10/08 00:11:22;;;;;;;11.13;10.10;;;15.60;99.90;;;;;;5028905;28;21902;-78
2022/10/08 00:13:52;;;;;;;11.50;10.40;;;15.60;99.90;;;;;;5028926;28;20457;-78
2022/10/08 00:16:20;;;;;;;12.57;11.30;;;15.60;99.90;;;;;;5023464;28;20480;-78
2022/10/08 00:18:48;;;;;;;11.07;9.97;;;15.70;99.90;;;;;;5024808;28;20498;-78
2022/10/08 00:21:19;;;;;;;10.93;9.93;;;15.70;99.90;;;;;;5027847;28;20809;-79
2022/10/08 00:23:48;;;;;;;11.90;10.90;;;15.80;99.90;;;;;;5023391;28;20452;-78
2022/10/08 00:26:16;;;;;;;11.67;10.50;;;15.80;99.90;;;;;;5027034;28;20457;-78
2022/10/08 00:28:45;;;;;;;14.83;11.10;;;15.80;99.90;;;;;;5026655;28;20470;-78
2022/10/08 00:31:15;;;;;;;13.20;10.43;;;15.80;99.90;;;;;;5026497;28;20965;-78
2022/10/08 00:33:42;;;;;;;12.60;11.43;;;15.90;99.90;;;;;;5025750;28;20461;-78
2022/10/08 00:36:12;;;;;;;12.70;11.47;;;15.90;99.90;;;;;;5029766;28;20448;-78
2022/10/08 00:38:39;;;;;;;13.00;11.13;;;15.90;99.90;;;;;;5031516;28;20495;-78
2022/10/08 00:41:16;;;;;;;11.97;11.07;;;15.90;99.90;;;;;;5033293;28;20509;-78
2022/10/08 00:43:46;;;;;;;11.40;10.37;;;15.90;99.90;;;;;;5025772;28;20534;-78
2022/10/08 00:46:24;;;;;;;13.90;12.80;;;15.80;99.90;;;;;;5034251;28;20569;-78
2022/10/08 00:48:55;;;;;;;13.47;12.37;;;15.70;99.90;;;;;;5027629;28;20492;-79
2022/10/08 00:51:24;;;;;;;13.60;12.40;;;15.60;99.90;;;;;;5025826;28;20464;-78
2022/10/08 00:53:51;;;;;;;14.10;12.73;;;15.40;99.90;;;;;;5021166;28;20504;-78
2022/10/08 00:56:19;;;;;;;14.10;12.77;;;15.40;99.90;;;;;;5017154;28;20461;-78
2022/10/08 00:58:46;;;;;;;13.03;11.93;;;15.40;99.90;;;;;;5025516;28;21015;-78
2022/10/08 01:01:13;;;;;;;12.67;11.57;;;15.30;99.90;;;;;;5033762;28;20456;-78
2022/10/08 01:03:41;;;;;;;12.97;11.87;;;15.30;99.90;;;;;;5029334;28;20503;-78
2022/10/08 01:06:21;;;;;;;14.13;12.83;;;15.40;99.90;;;;;;5017815;28;20461;-78
2022/10/08 01:08:54;;;;;;;13.53;12.30;;;15.40;99.90;;;;;;5017523;28;20448;-77
2022/10/08 01:11:43;;;;;;;12.57;11.43;;;15.40;99.90;;;;;;5021671;28;20555;-78
2022/10/08 01:14:24;;;;;;;13.13;11.67;;;15.40;99.90;;;;;;5027532;28;20481;-78
2022/10/08 01:16:58;;;;;;;12.20;11.00;;;15.40;99.90;;;;;;5019829;28;20898;-78
2022/10/08 01:19:56;;;;;;;11.40;10.20;;;15.50;99.90;;;;;;5019424;28;20452;-78
2022/10/08 01:22:37;;;;;;;10.93;9.90;;;15.50;99.90;;;;;;5028729;28;20551;-78
2022/10/08 01:25:32;;;;;;;11.20;10.30;;;15.50;99.90;;;;;;5019676;28;20539;-77
2022/10/08 01:28:06;;;;;;;11.07;10.07;;;15.50;99.90;;;;;;5023882;28;20484;-78
2022/10/08 01:30:36;;;;;;;11.07;9.87;;;15.60;99.90;;;;;;5022998;28;20967;-78
2022/10/08 01:33:11;;;;;;;10.83;9.80;;;15.60;99.90;;;;;;5018186;28;20537;-78
2022/10/08 01:35:43;;;;;;;10.90;9.80;;;15.60;99.90;;;;;;5022417;28;20554;-77
2022/10/08 01:38:16;;;;;;;11.87;10.77;;;15.60;99.90;;;;;;5028488;28;20578;-78
2022/10/08 01:40:45;;;;;;;11.37;10.33;;;15.60;99.90;;;;;;5018405;28;20459;-78
2022/10/08 01:43:18;;;;;;;11.30;10.40;;;15.60;99.90;;;;;;5015744;28;20556;-78
2022/10/08 01:45:51;;;;;;;12.83;11.60;;;15.50;99.90;;;;;;5027837;28;20997;-78
2022/10/08 01:48:23;;;;;;;13.67;12.47;;;15.20;99.90;;;;;;5021242;28;20479;-78
2022/10/08 01:50:54;;;;;;;14.10;12.80;;;15.10;99.90;;;;;;5022205;28;20474;-78
2022/10/08 01:53:26;;;;;;;14.40;13.13;;;14.90;99.90;;;;;;5030755;28;20559;-78
2022/10/08 01:55:55;;;;;;;14.30;13.10;;;15.00;99.90;;;;;;5031167;28;20949;-78
2022/10/08 01:58:30;;;;;;;14.60;13.33;;;14.90;99.90;;;;;;5025850;28;20587;-78
2022/10/08 02:01:03;;;;;;;13.83;12.53;;;14.80;99.90;;;;;;5025049;28;20915;-78
2022/10/08 02:03:30;;;;;;;14.27;12.97;;;14.90;99.90;;;;;;5025027;28;20478;-78
2022/10/08 02:06:02;;;;;;;14.83;13.53;;;14.80;99.90;;;;;;5022542;28;20458;-78
2022/10/08 02:08:29;;;;;;;16.47;14.80;;;14.80;99.90;;;;;;5027858;28;20819;-78
2022/10/08 02:10:56;;;;;;;14.37;13.17;;;14.80;99.90;;;;;;5020927;28;20539;-78
2022/10/08 02:13:25;;;;;;;15.77;14.27;;;14.70;99.90;;;;;;5020068;28;20452;-78
2022/10/08 02:15:58;;;;;;;16.23;14.77;;;14.60;99.90;;;;;;5026974;28;20481;-78
2022/10/08 02:18:35;;;;;;;16.23;14.73;;;14.60;99.90;;;;;;5026104;28;20519;-78
2022/10/08 02:21:07;;;;;;;17.10;15.50;;;14.60;99.90;;;;;;5023985;28;20459;-78
2022/10/08 02:23:38;;;;;;;16.37;14.87;;;14.60;99.90;;;;;;5026987;28;20808;-78
2022/10/08 02:26:09;;;;;;;16.27;14.87;;;14.60;99.90;;;;;;5023743;28;20476;-78
2022/10/08 02:28:45;;;;;;;16.83;15.30;;;14.60;99.90;;;;;;5015774;28;20977;-78
2022/10/08 02:31:17;;;;;;;14.93;13.63;;;14.50;99.90;;;;;;5026077;28;20592;-78
2022/10/08 02:33:50;;;;;;;16.43;14.80;;;14.50;99.90;;;;;;5022421;28;20456;-78
2022/10/08 02:36:22;;;;;;;15.60;14.10;;;14.40;99.90;;;;;;5025493;28;20483;-78
2022/10/08 02:38:52;;;;;;;15.87;14.37;;;14.50;99.90;;;;;;5023809;28;21056;-78
2022/10/08 02:41:22;;;;;;;14.63;13.23;;;14.50;99.90;;;;;;5024454;28;20459;-78
2022/10/08 02:43:53;;;;;;;14.77;13.47;;;14.50;99.90;;;;;;5029025;28;21042;-78
2022/10/08 02:46:23;;;;;;;16.43;14.97;;;14.60;99.90;;;;;;5020054;28;20567;-78
2022/10/08 02:48:56;;;;;;;16.23;14.83;;;14.60;99.90;;;;;;5023555;28;20498;-78
2022/10/08 02:51:24;;;;;;;17.10;15.60;;;14.60;99.90;;;;;;5021698;28;20547;-79
2022/10/08 02:53:52;;;;;;;15.23;13.73;;;14.60;99.90;;;;;;5024156;28;20940;-79
2022/10/08 02:56:25;;;;;;;15.67;14.43;;;14.60;99.90;;;;;;5028842;28;20581;-79
2022/10/08 02:58:55;;;;;;;14.37;12.90;;;14.60;99.90;;;;;;5022149;28;20562;-78
2022/10/08 03:01:29;;;;;;;14.87;13.50;;;14.60;99.90;;;;;;5024423;28;21018;-79
2022/10/08 03:04:00;;;;;;;14.93;13.43;;;14.60;99.90;;;;;;5022591;28;20558;-78
2022/10/08 03:06:28;;;;;;;13.53;12.40;;;14.60;99.90;;;;;;5031235;28;20551;-78
2022/10/08 03:08:58;;;;;;;15.23;13.90;;;14.60;99.90;;;;;;5018425;28;20453;-79
2022/10/08 03:11:27;;;;;;;17.23;15.60;;;14.60;99.90;;;;;;5026641;28;20961;-77
2022/10/08 03:13:57;;;;;;;17.47;15.77;;;14.60;99.90;;;;;;5025852;28;20448;-78
2022/10/08 03:16:31;;;;;;;16.03;14.53;;;14.60;99.90;;;;;;5030033;28;22237;-78
2022/10/08 03:19:01;;;;;;;17.50;15.80;;;14.50;99.90;;;;;;5020910;28;20531;-79
2022/10/08 03:21:28;;;;;;;16.00;14.50;;;14.60;99.90;;;;;;5017279;28;20459;-79
2022/10/08 03:23:55;;;;;;;15.90;14.40;;;14.60;99.90;;;;;;5032541;28;20463;-77
2022/10/08 03:26:22;;;;;;;13.90;12.60;;;14.70;99.90;;;;;;5022076;28;20495;-79
2022/10/08 03:28:52;;;;;;;12.13;11.07;;;14.70;99.90;;;;;;5020688;28;20440;-79
2022/10/08 03:31:20;;;;;;;13.17;11.87;;;14.80;99.90;;;;;;5023171;28;20444;-78
2022/10/08 03:33:50;;;;;;;12.10;11.00;;;14.90;99.90;;;;;;5033145;28;20463;-78
2022/10/08 03:36:17;;;;;;;10.80;9.90;;;14.90;99.90;;;;;;5030080;28;20472;-79
2022/10/08 03:38:44;;;;;;;10.10;9.30;;;14.90;99.90;;;;;;5018531;28;20586;-78
2022/10/08 03:41:11;;;;;;;11.00;10.00;;;15.00;99.90;;;;;;5024147;28;20495;-78
2022/10/08 03:43:38;;;;;;;12.67;11.37;;;15.00;99.90;;;;;;5030659;28;20448;-78
2022/10/08 03:46:05;;;;;;;10.47;9.53;;;15.00;99.90;;;;;;5030364;28;20477;-79
2022/10/08 03:48:34;;;;;;;11.20;10.20;;;15.00;99.90;;;;;;5029273;28;21014;-78
2022/10/08 03:51:02;;;;;;;10.67;9.73;;;15.10;99.90;;;;;;5018499;28;20452;-78
2022/10/08 03:53:32;;;;;;;10.83;9.83;;;15.10;99.90;;;;;;5037307;28;20457;-78
2022/10/08 03:56:01;;;;;;;10.40;9.50;;;15.10;99.90;;;;;;5029541;28;20475;-78
2022/10/08 03:58:29;;;;;;;11.70;9.53;;;15.10;99.90;;;;;;5029537;28;20472;-79
2022/10/08 04:00:57;;;;;;;10.80;9.70;;;15.10;99.90;;;;;;5036102;28;20889;-79
2022/10/08 04:03:24;;;;;;;12.30;10.97;;;15.10;99.90;;;;;;5025477;28;20563;-78
2022/10/08 04:05:53;;;;;;;12.23;11.13;;;15.10;99.90;;;;;;5018726;28;21979;-79
2022/10/08 04:08:20;;;;;;;12.57;11.47;;;15.10;99.90;;;;;;5031488;28;20571;-79
2022/10/08 04:10:47;;;;;;;12.00;11.00;;;15.00;99.90;;;;;;5033209;28;20470;-78
2022/10/08 04:13:14;;;;;;;13.80;12.70;;;15.00;99.90;;;;;;5029825;28;20501;-78
2022/10/08 04:15:42;;;;;;;13.60;12.30;;;15.00;99.90;;;;;;5030337;28;20486;-78
2022/10/08 04:18:11;;;;;;;13.50;12.27;;;15.00;99.90;;;;;;5033418;28;20553;-78
2022/10/08 04:20:39;;;;;;;13.63;12.37;;;15.00;99.90;;;;;;5014946;28;20479;-78
2022/10/08 04:23:07;;;;;;;13.83;12.53;;;15.10;99.90;;;;;;5022059;28;20452;-79
2022/10/08 04:25:35;;;;;;;16.23;13.23;;;15.10;99.90;;;;;;5022229;28;20460;-78
2022/10/08 04:28:02;;;;;;;14.60;13.20;;;15.10;99.90;;;;;;5037584;28;20451;-79
2022/10/08 04:30:29;;;;;;;13.43;12.23;;;15.10;99.90;;;;;;5023053;28;20497;-78
2022/10/08 04:32:57;;;;;;;14.37;13.13;;;15.10;99.90;;;;;;5021372;28;20528;-78
2022/10/08 04:35:27;;;;;;;14.53;13.10;;;15.10;99.90;;;;;;5022546;28;20530;-79
2022/10/08 04:37:53;;;;;;;14.90;13.27;;;15.10;99.90;;;;;;5027949;28;20534;-78
2022/10/08 04:40:22;;;;;;;13.53;12.20;;;15.10;99.90;;;;;;5029041;28;20490;-79
2022/10/08 04:42:52;;;;;;;15.70;14.30;;;15.00;99.90;;;;;;5033839;28;20466;-78
2022/10/08 04:45:19;;;;;;;15.30;13.70;;;15.00;99.90;;;;;;5031673;28;20857;-78
2022/10/08 04:47:46;;;;;;;13.97;12.77;;;15.00;99.90;;;;;;5033713;28;20480;-79
2022/10/08 04:50:13;;;;;;;12.87;11.67;;;15.00;99.90;;;;;;5026952;28;20452;-78
2022/10/08 04:52:40;;;;;;;14.87;12.97;;;15.00;99.90;;;;;;5021117;28;20455;-78
2022/10/08 04:55:08;;;;;;;14.60;13.17;;;15.00;99.90;;;;;;5016324;28;20465;-78
2022/10/08 04:57:37;;;;;;;13.93;12.67;;;15.00;99.90;;;;;;5030930;28;20519;-79
2022/10/08 05:00:05;;;;;;;14.37;12.97;;;14.90;99.90;;;;;;5030797;28;20487;-78
2022/10/08 05:02:33;;;;;;;14.03;12.63;;;15.00;99.90;;;;;;5013602;28;20835;-78
2022/10/08 05:05:00;;;;;;;15.40;14.00;;;15.00;99.90;;;;;;5026697;28;20473;-78
2022/10/08 05:07:28;;;;;;;14.67;13.53;;;14.90;99.90;;;;;;5018848;28;20824;-79
2022/10/08 05:09:56;;;;;;;15.80;14.30;;;14.90;99.90;;;;;;5023847;28;20460;-79
2022/10/08 05:12:23;;;;;;;16.27;13.60;;;14.90;99.90;;;;;;5015419;28;20879;-78
2022/10/08 05:14:51;;;;;;;14.60;13.30;;;14.90;99.90;;;;;;5026867;28;20467;-76
2022/10/08 05:17:19;;;;;;;14.47;13.27;;;14.90;99.90;;;;;;5020529;28;20511;-76
2022/10/08 05:19:46;;;;;;;13.47;12.20;;;14.90;99.90;;;;;;5030599;28;20484;-77
2022/10/08 05:22:13;;;;;;;16.20;14.63;;;14.80;99.90;;;;;;5016843;28;20515;-77
2022/10/08 05:24:40;;;;;;;16.00;14.47;;;14.80;99.90;;;;;;5030762;28;20542;-76
2022/10/08 05:27:07;;;;;;;13.43;12.10;;;14.80;99.90;;;;;;5027312;28;20570;-77
2022/10/08 05:29:34;;;;;;;15.13;13.60;;;14.80;99.90;;;;;;5032344;28;20463;-76
2022/10/08 05:32:02;;;;;;;14.40;13.20;;;14.80;99.90;;;;;;5013877;28;20488;-76
2022/10/08 05:34:29;;;;;;;15.43;13.53;;;14.70;99.90;;;;;;5021431;28;20484;-76
2022/10/08 05:36:56;;;;;;;17.83;14.70;;;14.70;99.90;;;;;;5026298;28;20843;-76
2022/10/08 05:39:23;;;;;;;16.40;14.80;;;14.70;99.90;;;;;;5023756;28;20488;-78
2022/10/08 05:41:50;;;;;;;15.57;14.27;;;14.60;99.90;;;;;;5027844;28;20466;-79
2022/10/08 05:44:17;;;;;;;16.13;14.73;;;14.30;99.90;;;;;;5027865;28;20458;-79
2022/10/08 05:46:44;;;;;;;15.83;14.33;;;14.60;99.90;;;;;;5023059;28;20520;-77
2022/10/08 05:49:17;;;;;;;15.30;13.87;;;14.50;99.90;;;;;;5024108;28;20471;-77
2022/10/08 05:51:44;;;;;;;15.60;13.97;;;14.50;99.90;;;;;;5028222;28;20604;-77
2022/10/08 05:54:11;;;;;;;15.10;13.70;;;14.40;99.90;;;;;;5023478;28;20460;-76
2022/10/08 05:56:38;;;;;;;19.77;14.30;;;14.40;99.90;;;;;;5020763;28;20558;-77
2022/10/08 05:59:05;;;;;;;16.30;14.60;;;14.40;99.90;;;;;;5028614;28;20571;-77
2022/10/08 06:01:33;;;;;;;15.40;13.90;;;14.40;99.90;;;;;;5024726;28;20486;-78
2022/10/08 06:04:04;;;;;;;17.10;15.30;;;14.40;99.90;;;;;;5024904;28;20472;-77
2022/10/08 06:06:34;;;;;;;15.77;14.40;;;14.40;99.90;;;;;;5022329;28;20565;-77
2022/10/08 06:09:02;;;;;;;14.97;13.40;;;14.40;99.90;;;;;;5029216;28;20459;-79
2022/10/08 06:11:31;;;;;;;16.17;14.07;;;14.40;99.90;;;;;;5013826;28;20562;-78
2022/10/08 06:13:59;;;;;;;15.83;14.00;;;14.40;99.90;;;;;;5013620;28;20466;-78
2022/10/08 06:16:27;;;;;;;15.03;13.20;;;14.50;99.90;;;;;;5023798;28;20479;-78
2022/10/08 06:18:55;;;;;;;17.03;13.70;;;14.50;99.90;;;;;;5029530;28;21037;-78
2022/10/08 06:21:24;;;;;;;14.13;12.63;;;14.60;99.90;;;;;;5027210;28;20506;-79
2022/10/08 06:23:54;;;;;;;14.30;12.80;;;14.70;99.90;;;;;;5028753;28;20448;-78
2022/10/08 06:26:25;;;;;;;14.50;13.00;;;14.80;99.90;;;;;;5025889;28;20471;-80
2022/10/08 06:28:52;;;;;;;14.77;11.73;;;14.80;99.90;;;;;;5026462;28;20466;-80
2022/10/08 06:31:19;;;;;;;13.87;12.47;;;14.80;99.90;;;;;;5027967;28;20539;-80
2022/10/08 06:33:46;;;;;;;12.70;11.60;;;14.80;99.90;;;;;;5025998;28;20478;-80
2022/10/08 06:36:16;;;;;;;11.97;10.80;;;14.80;99.90;;;;;;5031270;28;20468;-78
2022/10/08 06:38:43;;;;;;;12.73;11.40;;;14.90;99.90;;;;;;5018782;28;20968;-78
2022/10/08 06:41:11;;;;;;;13.97;12.67;;;15.00;99.90;;;;;;5023450;28;20463;-78
2022/10/08 06:43:39;;;;;;;12.50;11.30;;;15.10;99.90;;;;;;5030222;28;20456;-78
2022/10/08 06:46:06;;;;;;;14.13;11.10;;;15.10;99.90;;;;;;5029956;28;20475;-81
2022/10/08 06:48:33;;;;;;;13.30;10.07;;;15.20;99.90;;;;;;5031056;28;20555;-78
2022/10/08 06:51:01;;;;;;;11.50;10.40;;;15.30;99.90;;;;;;5034117;28;20463;-78
2022/10/08 06:53:30;;;;;;;11.97;10.53;;;15.50;99.90;;;;;;5024133;28;20453;-78
2022/10/08 06:55:58;;;;;;;15.07;10.40;;;15.70;99.90;;;;;;5037452;28;20518;-79
2022/10/08 06:58:26;;;;;;;11.40;10.30;;;15.90;99.90;;;;;;5025227;28;20483;-81
2022/10/08 07:01:02;;;;;;;11.03;9.93;;;16.10;99.90;;;;;;5026212;28;20508;-81
2022/10/08 07:03:29;;;;;;;10.77;8.70;;;16.30;99.90;;;;;;5025708;28;20558;-78
2022/10/08 07:05:58;;;;;;;8.20;7.50;;;16.50;99.90;;;;;;5031038;28;20484;-79
2022/10/08 07:08:25;;;;;;;10.13;8.50;;;16.70;99.90;;;;;;5025519;28;20506;-77
2022/10/08 07:10:54;;;;;;;9.53;8.30;;;17.00;99.90;;;;;;5032660;28;20459;-76
2022/10/08 07:13:21;;;;;;;8.83;8.03;;;17.20;99.90;;;;;;5024517;28;20547;-78
2022/10/08 07:15:49;;;;;;;12.43;8.50;;;17.40;99.90;;;;;;5024188;28;20482;-79
2022/10/08 07:18:17;;;;;;;8.13;7.23;;;17.50;99.90;;;;;;5024103;28;20966;-79
2022/10/08 07:20:43;;;;;;;8.30;7.60;;;17.70;99.90;;;;;;5023306;28;20494;-79
2022/10/08 07:23:10;;;;;;;8.80;8.00;;;17.90;99.90;;;;;;5032460;28;20455;-80
2022/10/08 07:25:37;;;;;;;8.67;7.73;;;17.90;99.90;;;;;;5032950;28;20871;-83
2022/10/08 07:28:04;;;;;;;10.60;8.17;;;18.00;99.90;;;;;;5030026;28;20550;-79
2022/10/08 07:30:31;;;;;;;8.27;7.00;;;18.20;99.90;;;;;;5023130;28;20937;-79
2022/10/08 07:33:00;;;;;;;7.50;5.80;;;18.50;99.90;;;;;;5027247;28;20449;-80
2022/10/08 07:35:29;;;;;;;9.43;5.53;;;18.90;99.90;;;;;;5022519;28;20476;-79
2022/10/08 07:37:56;;;;;;;5.50;4.93;;;19.10;99.90;;;;;;5032553;28;20857;-79
2022/10/08 07:40:24;;;;;;;6.60;4.90;;;19.30;99.90;;;;;;5033334;28;20581;-79
2022/10/08 07:42:51;;;;;;;6.87;4.63;;;19.40;99.90;;;;;;5032847;28;20495;-79
2022/10/08 07:45:18;;;;;;;4.70;4.00;;;19.50;99.90;;;;;;5021998;28;20848;-79
2022/10/08 07:47:45;;;;;;;7.67;3.27;;;19.30;99.90;;;;;;5030859;28;20816;-80
2022/10/08 07:50:13;;;;;;;5.07;3.13;;;19.10;99.90;;;;;;5025712;28;20457;-79
2022/10/08 07:52:40;;;;;;;5.37;3.43;;;19.10;99.90;;;;;;5015615;28;20463;-80
2022/10/08 07:55:08;;;;;;;7.47;3.70;;;19.20;99.90;;;;;;5019181;28;20512;-79
2022/10/08 07:57:35;;;;;;;7.10;3.20;;;19.30;99.90;;;;;;5013976;28;20448;-79
2022/10/08 08:00:01;;;;;;;5.07;3.10;;;19.40;99.90;;;;;;5021708;28;20912;-79
2022/10/08 08:02:29;;;;;;;4.80;3.27;;;19.40;99.90;;;;;;5024035;28;20587;-79
2022/10/08 08:04:55;;;;;;;4.77;3.30;;;19.60;99.90;;;;;;5027000;28;20533;-79
2022/10/08 08:07:24;;;;;;;6.40;3.20;;;19.60;99.90;;;;;;5017741;28;20450;-79
2022/10/08 08:09:51;;;;;;;5.27;2.90;;;19.60;99.90;;;;;;5040178;28;20554;-80
2022/10/08 08:12:18;;;;;;;4.50;3.03;;;19.60;99.90;;;;;;5033386;28;20443;-80
2022/10/08 08:14:45;;;;;;;5.50;2.60;;;19.50;99.90;;;;;;5032693;28;20483;-79
2022/10/08 08:17:12;;;;;;;4.50;2.70;;;19.40;99.90;;;;;;5029564;28;20450;-79
2022/10/08 08:19:39;;;;;;;5.60;2.80;;;19.40;99.90;;;;;;5032727;28;20470;-80
2022/10/08 08:22:06;;;;;;;5.23;3.00;;;19.60;99.90;;;;;;5031041;28;20876;-80
2022/10/08 08:24:34;;;;;;;4.60;2.70;;;19.60;99.90;;;;;;5024680;28;20457;-80
2022/10/08 08:27:01;;;;;;;5.93;3.00;;;19.40;99.90;;;;;;5025339;28;20501;-82
2022/10/08 08:29:28;;;;;;;7.93;3.20;;;19.10;99.90;;;;;;5029656;28;20437;-81
2022/10/08 08:31:55;;;;;;;4.03;2.70;;;19.20;99.90;;;;;;5025757;28;20461;-80
2022/10/08 08:34:24;;;;;;;5.97;3.20;;;19.60;99.90;;;;;;5020023;28;20552;-81
2022/10/08 08:36:53;;;;;;;4.70;2.93;;;20.00;99.90;;;;;;5019732;28;20484;-78
2022/10/08 08:39:22;;;;;;;7.90;2.90;;;20.40;99.90;;;;;;5028651;28;20483;-79
2022/10/08 08:41:59;;;;;;;5.03;2.67;;;20.70;99.90;;;;;;5023778;28;20453;-82
2022/10/08 08:44:30;;;;;;;5.60;2.70;;;21.00;99.90;;;;;;5030432;28;20521;-79
2022/10/08 08:47:01;;;;;;;5.23;2.90;;;21.20;99.90;;;;;;5030243;28;20535;-79
2022/10/08 08:49:31;;;;;;;4.77;2.13;;;21.50;99.90;;;;;;5030202;28;20484;-79
2022/10/08 08:52:01;;;;;;;4.60;2.50;;;21.50;99.90;;;;;;5032173;28;20527;-79
2022/10/08 08:54:29;;;;;;;6.53;3.10;;;21.60;99.90;;;;;;5030559;28;20448;-78
2022/10/08 08:57:12;;;;;;;5.93;2.73;;;21.40;99.90;;;;;;5015208;28;20458;-79
2022/10/08 08:59:43;;;;;;;5.00;2.47;;;21.30;99.90;;;;;;5022305;28;20461;-80
2022/10/08 09:02:19;;;;;;;5.57;2.57;;;21.40;99.90;;;;;;5009852;28;20452;-79
2022/10/08 09:04:50;;;;;;;6.83;2.90;;;21.60;99.90;;;;;;5028961;28;20510;-80
2022/10/08 09:07:21;;;;;;;4.63;2.40;;;21.90;99.90;;;;;;5025622;28;20455;-79
2022/10/08 09:09:51;;;;;;;4.10;2.53;;;22.00;99.90;;;;;;5016520;28;20540;-80
2022/10/08 09:12:23;;;;;;;6.60;3.03;;;22.20;99.90;;;;;;5026591;28;20452;-80
2022/10/08 09:14:53;;;;;;;4.93;2.57;;;22.30;99.90;;;;;;5023662;28;20510;-79
2022/10/08 09:17:27;;;;;;;4.60;2.67;;;22.40;99.00;;;;;;5023528;28;20544;-79
2022/10/08 09:19:55;;;;;;;6.90;2.90;;;22.70;98.70;;;;;;5026518;28;20543;-79
2022/10/08 09:22:24;;;;;;;4.77;2.90;;;22.80;98.80;;;;;;5034138;28;20498;-79
2022/10/08 09:25:00;;;;;;;8.27;3.23;;;22.90;98.90;;;;;;5025759;28;20469;-79
2022/10/08 09:27:44;;;;;;;5.63;2.70;;;23.00;98.70;;;;;;5014437;28;20577;-79
2022/10/08 09:30:27;;;;;;;6.70;3.00;;;23.20;98.70;;;;;;5021358;28;20468;-79
2022/10/08 09:32:56;;;;;;;4.90;2.60;;;23.40;98.50;;;;;;5016366;28;20518;-80
2022/10/08 09:35:23;;;;;;;4.77;2.83;;;23.60;97.70;;;;;;5028148;28;20472;-79
2022/10/08 09:37:51;;;;;;;5.27;2.70;;;23.70;97.10;;;;;;5021966;28;20466;-79
2022/10/08 09:40:21;;;;;;;6.13;2.60;;;23.80;96.50;;;;;;5015927;28;20571;-79
2022/10/08 09:43:17;;;;;;;4.63;2.53;;;23.80;96.10;;;;;;5017047;28;20546;-79
2022/10/08 09:45:46;;;;;;;7.10;2.80;;;23.60;95.70;;;;;;5023165;28;20475;-79
2022/10/08 09:48:24;;;;;;;3.87;2.30;;;23.40;96.00;;;;;;5025277;28;20449;-79
2022/10/08 09:50:55;;;;;;;6.07;2.93;;;23.40;96.30;;;;;;5026222;28;20495;-79
2022/10/08 09:53:25;;;;;;;5.20;3.00;;;23.40;96.10;;;;;;5029272;28;20543;-79
2022/10/08 09:55:57;;;;;;;5.97;2.90;;;23.50;96.80;;;;;;5026339;28;20554;-79
2022/10/08 09:58:25;;;;;;;5.70;3.30;;;23.60;96.40;;;;;;5021151;28;20975;-79
2022/10/08 10:00:57;;;;;;;7.60;3.17;;;23.60;96.60;;;;;;5014755;28;21178;-79
2022/10/08 10:03:26;;;;;;;4.73;2.93;;;23.50;95.80;;;;;;5018001;28;20464;-79
2022/10/08 10:05:57;;;;;;;3.60;2.20;;;23.20;94.10;;;;;;5023895;28;20478;-79
2022/10/08 10:08:45;;;;;;;7.50;2.80;;;22.90;94.20;;;;;;5019107;28;21187;-79
2022/10/08 10:11:17;;;;;;;5.50;2.67;;;22.90;94.20;;;;;;5024675;28;20529;-79
2022/10/08 10:13:48;;;;;;;4.20;2.10;;;23.10;93.50;;;;;;5027869;28;20505;-78
2022/10/08 10:16:19;;;;;;;4.40;2.87;;;23.50;93.60;;;;;;5022743;28;20512;-78
2022/10/08 10:18:53;;;;;;;6.50;2.37;;;23.30;93.20;;;;;;5017985;28;20538;-78
2022/10/08 10:21:26;;;;;;;6.53;2.40;;;23.30;93.50;;;;;;5018139;28;20489;-78
2022/10/08 10:24:04;;;;;;;6.80;2.80;;;23.50;91.90;;;;;;5026666;28;20466;-77
2022/10/08 10:26:36;;;;;;;6.40;2.57;;;23.20;92.30;;;;;;5031949;28;20482;-78
2022/10/08 10:29:10;;;;;;;6.90;2.40;;;23.00;92.70;;;;;;5028273;28;20486;-78
2022/10/08 10:31:43;;;;;;;6.17;2.83;;;22.90;92.50;;;;;;5026743;28;20477;-78
2022/10/08 10:34:15;;;;;;;3.40;2.03;;;22.90;92.60;;;;;;5022721;28;20483;-77
2022/10/08 10:36:48;;;;;;;4.40;2.30;;;22.80;92.90;;;;;;5022466;28;20553;-80
2022/10/08 10:39:27;;;;;;;6.00;2.80;;;22.80;93.00;;;;;;5012644;28;20480;-77
2022/10/08 10:42:04;;;;;;;4.47;2.30;;;22.90;93.20;;;;;;5025214;28;20570;-79
2022/10/08 10:44:37;;;;;;;4.97;2.17;;;22.90;91.80;;;;;;5025985;28;20565;-79
2022/10/08 10:47:04;;;;;;;5.57;2.30;;;23.00;91.40;;;;;;5032314;28;20454;-79
2022/10/08 10:49:37;;;;;;;3.87;1.80;;;23.10;92.40;;;;;;5034713;28;20542;-78
2022/10/08 10:52:20;;;;;;;4.17;2.53;;;23.40;91.90;;;;;;5033655;28;20455;-79
2022/10/08 10:55:08;;;;;;;5.33;2.60;;;23.60;90.80;;;;;;5026018;28;20472;-79
2022/10/08 10:57:55;;;;;;;3.27;2.27;;;23.60;90.10;;;;;;5027724;28;20459;-79
2022/10/08 11:00:27;;;;;;;3.97;2.00;;;23.40;89.10;;;;;;5030442;28;20501;-79
2022/10/08 11:03:01;;;;;;;4.60;1.90;;;23.20;88.50;;;;;;5020011;28;20863;-78
2022/10/08 11:05:31;;;;;;;3.87;1.70;;;23.00;91.30;;;;;;5025794;28;20472;-79
2022/10/08 11:08:09;;;;;;;3.50;2.10;;;23.10;89.60;;;;;;5025950;28;20463;-78
2022/10/08 11:10:48;;;;;;;5.77;1.97;;;23.30;90.00;;;;;;5031597;28;20450;-77
2022/10/08 11:13:33;;;;;;;4.20;2.17;;;23.30;88.90;;;;;;5019487;28;20466;-78
2022/10/08 11:16:12;;;;;;;5.30;2.17;;;23.30;89.60;;;;;;5033960;28;20482;-78
2022/10/08 11:18:47;;;;;;;5.07;2.63;;;23.40;89.60;;;;;;5023136;28;20464;-81
2022/10/08 11:21:35;;;;;;;5.97;2.40;;;23.40;90.70;;;;;;5032343;28;20478;-79
2022/10/08 11:24:25;;;;;;;5.93;2.30;;;23.40;90.40;;;;;;5018180;28;20550;-77
2022/10/08 11:26:57;;;;;;;4.40;1.73;;;23.30;90.50;;;;;;5040107;28;21071;-73
2022/10/08 11:29:33;;;;;;;5.70;2.20;;;23.40;90.50;;;;;;5023516;28;20460;-81
2022/10/08 11:32:02;;;;;;;4.07;2.00;;;23.40;88.90;;;;;;5032905;28;20452;-81
2022/10/08 11:34:32;;;;;;;4.00;1.93;;;23.30;88.60;;;;;;5013378;28;20548;-72
2022/10/08 11:37:08;;;;;;;4.67;2.20;;;23.30;89.70;;;;;;5019858;28;20467;-76
2022/10/08 11:39:44;;;;;;;4.07;2.40;;;23.10;89.40;;;;;;5029936;28;20870;-76
2022/10/08 11:42:18;;;;;;;5.23;2.47;;;22.80;90.10;;;;;;5028565;28;20551;-76
2022/10/08 11:44:45;;;;;;;5.20;2.20;;;22.60;89.20;;;;;;5022208;28;20560;-76
2022/10/08 11:47:46;;;;;;;4.30;1.83;;;22.30;90.10;;;;;;5028417;28;20452;-76
2022/10/08 11:50:27;;;;;;;5.00;2.10;;;22.30;90.80;;;;;;5023349;28;20460;-76
2022/10/08 11:52:57;;;;;;;3.90;1.70;;;22.40;89.40;;;;;;5024913;28;20482;-77
2022/10/08 11:55:26;;;;;;;4.90;1.93;;;22.50;90.30;;;;;;5029149;28;20479;-75
2022/10/08 11:57:57;;;;;;;4.53;2.10;;;22.50;90.70;;;;;;5016288;28;20936;-76
2022/10/08 12:00:37;;;;;;;5.00;2.27;;;22.40;90.90;;;;;;5026756;28;20488;-76
2022/10/08 12:03:19;;;;;;;5.77;2.00;;;22.40;91.20;;;;;;5022032;28;20563;-77
2022/10/08 12:05:49;;;;;;;4.07;1.93;;;22.40;91.30;;;;;;5022387;28;20825;-76
2022/10/08 12:08:46;;;;;;;3.73;2.13;;;22.60;91.70;;;;;;5023459;28;20456;-76
2022/10/08 12:11:48;;;;;;;5.97;2.70;;;22.70;91.90;;;;;;5018404;28;20531;-76
2022/10/08 12:14:46;;;;;;;3.90;2.23;;;22.90;91.40;;;;;;5013284;28;20491;-77
2022/10/08 12:17:13;;;;;;;4.33;2.03;;;23.10;91.20;;;;;;5021972;28;20479;-76
2022/10/08 12:20:04;;;;;;;7.57;2.23;;;23.30;91.10;;;;;;5018869;28;21011;-77
2022/10/08 12:22:42;;;;;;;4.63;2.07;;;23.30;90.90;;;;;;5009714;28;21070;-77
2022/10/08 12:25:32;;;;;;;5.00;2.20;;;23.40;91.10;;;;;;5022914;28;20554;-76
2022/10/08 12:28:52;;;;;;;4.60;1.80;;;23.40;91.00;;;;;;5026844;28;20463;-77
2022/10/08 12:31:31;;;;;;;2.57;1.40;;;23.20;90.60;;;;;;5016596;28;20451;-76
2022/10/08 12:34:01;;;;;;;3.77;1.83;;;22.80;90.30;;;;;;5019649;28;20559;-75
2022/10/08 12:36:59;;;;;;;3.47;1.60;;;22.40;88.80;;;;;;5025622;28;20547;-76
2022/10/08 12:39:34;;;;;;;2.67;1.80;;;22.00;90.10;;;;;;5023772;28;20544;-76
2022/10/08 12:42:12;;;;;;;3.20;1.87;;;21.80;91.10;;;;;;5031444;28;20483;-77
2022/10/08 12:44:49;;;;;;;3.33;1.60;;;21.80;90.30;;;;;;5022530;28;20468;-77
2022/10/08 12:47:25;;;;;;;2.90;1.23;;;21.60;90.50;;;;;;5025778;28;21027;-76
2022/10/08 12:49:58;;;;;;;5.40;2.00;;;21.40;91.40;;;;;;5025148;28;20808;-76
2022/10/08 12:52:26;;;;;;;3.73;1.80;;;21.30;92.20;;;;;;5022498;28;20797;-75
2022/10/08 12:54:57;;;;;;;4.20;2.00;;;21.40;92.40;;;;;;5027274;28;20472;-76
2022/10/08 12:57:28;;;;;;;4.17;1.50;;;21.40;92.10;;;;;;5025003;28;20576;-75